Rm Thomas — FNMP — position and weather

sailwx.info

Track history (hours):
 
Tides and Currents Weather Stations Pressure Air Temp Water Temp Dewpoint Dewpoint Depression Visibility Wind Speed Wind Dir Waves Ship Positions

Rm Thomas

Last reported at 2015-Jul-04 03:33 UTC. Time now 2015-Jul-05 14:59 UTC.
Position N 44°53' W 000°32'.

Length 25 m; draft 4 m.

Type: Tug. MMSI: 228278700.

Date/timePositionNaut miles runAvg speedWind from/ knotsBaromVisibWave heightAir tempDewpointWater temp
2015-Jul-04 03:33N 44°53' W 000°32'0 0.0
2015-Jul-04 02:29N 44°53' W 000°32'0 0.0
2015-Jul-04 01:33N 44°53' W 000°32'  
2015-Jul-01 01:10N 44°53' W 000°32'0 0.0
2015-Jul-01 00:33N 44°53' W 000°32'0 0.0
2015-Jun-30 23:12N 44°53' W 000°32'0 0.0
2015-Jun-30 07:29N 44°53' W 000°32'0 0.0
2015-Jun-30 06:33N 44°53' W 000°32'0 0.0
2015-Jun-30 05:24N 44°53' W 000°32'0 0.0
2015-Jun-30 04:19N 44°53' W 000°32'15 0.8
2015-Jun-29 10:32N 45°07' W 000°40'0 0.0
2015-Jun-29 09:30N 45°07' W 000°40'0 0.0
2015-Jun-29 08:33N 45°07' W 000°40'0 0.0
2015-Jun-29 07:33N 45°07' W 000°40'0 0.0
2015-Jun-29 06:33N 45°07' W 000°40'0 0.0
2015-Jun-29 05:32N 45°07' W 000°40'0 0.0
2015-Jun-29 04:33N 45°07' W 000°40'0 0.0
2015-Jun-29 03:33N 45°07' W 000°40'0 0.0
2015-Jun-29 02:27N 45°07' W 000°40'0 0.0
2015-Jun-29 01:33N 45°07' W 000°40'0 0.0
2015-Jun-29 00:33N 45°07' W 000°40'0 0.0
2015-Jun-28 23:33N 45°07' W 000°40'0 0.0
2015-Jun-28 22:30N 45°07' W 000°40'0 0.0
2015-Jun-28 21:30N 45°07' W 000°40'0 0.0
2015-Jun-28 20:30N 45°07' W 000°40'0 0.0
2015-Jun-28 19:33N 45°07' W 000°40'0 0.0
2015-Jun-28 18:33N 45°07' W 000°40'0 0.0
2015-Jun-28 17:33N 45°07' W 000°40'0 0.0
2015-Jun-28 16:31N 45°07' W 000°40'15 0.9
2015-Jun-28 00:33N 44°53' W 000°32'0 0.0
2015-Jun-27 23:03N 44°53' W 000°32'0 0.0
2015-Jun-27 22:33N 44°53' W 000°32'7 0.3
2015-Jun-27 01:21N 44°60' W 000°33'2 2.0
2015-Jun-27 00:30N 44°58' W 000°32'5 1.2
2015-Jun-26 20:22N 44°53' W 000°32'0 0.0
2015-Jun-26 19:33N 44°53' W 000°32'0 0.0
2015-Jun-26 18:16N 44°53' W 000°32'0 0.0
2015-Jun-26 03:32N 44°53' W 000°32'0 0.0
2015-Jun-26 02:04N 44°53' W 000°32'0 0.0
2015-Jun-26 01:33N 44°53' W 000°32'1 1.0
2015-Jun-26 00:29N 44°54' W 000°32'1 0.8
2015-Jun-25 23:33N 44°55' W 000°33'  
Track history (hours):
 
Tides and Currents Weather Stations Pressure Air Temp Water Temp Dewpoint Dewpoint Depression Visibility Wind Speed Wind Dir Waves Ship Positions

Rm Thomas

Last reported at 2015-Jul-04 03:33 UTC. Time now 2015-Jul-05 14:59 UTC.
Position N 44°53' W 000°32'.

Length 25 m; draft 4 m.

Type: Tug. MMSI: 228278700.

Date/timePositionNaut miles runAvg speedWind from/ knotsBaromVisibWave heightAir tempDewpointWater temp
2015-Jul-04 03:33N 44°53' W 000°32'0 0.0
2015-Jul-04 02:29N 44°53' W 000°32'0 0.0
2015-Jul-04 01:33N 44°53' W 000°32'  
2015-Jul-01 01:10N 44°53' W 000°32'0 0.0
2015-Jul-01 00:33N 44°53' W 000°32'0 0.0
2015-Jun-30 23:12N 44°53' W 000°32'0 0.0
2015-Jun-30 07:29N 44°53' W 000°32'0 0.0
2015-Jun-30 06:33N 44°53' W 000°32'0 0.0
2015-Jun-30 05:24N 44°53' W 000°32'0 0.0
2015-Jun-30 04:19N 44°53' W 000°32'15 0.8
2015-Jun-29 10:32N 45°07' W 000°40'0 0.0
2015-Jun-29 09:30N 45°07' W 000°40'0 0.0
2015-Jun-29 08:33N 45°07' W 000°40'0 0.0
2015-Jun-29 07:33N 45°07' W 000°40'0 0.0
2015-Jun-29 06:33N 45°07' W 000°40'0 0.0
2015-Jun-29 05:32N 45°07' W 000°40'0 0.0
2015-Jun-29 04:33N 45°07' W 000°40'0 0.0
2015-Jun-29 03:33N 45°07' W 000°40'0 0.0
2015-Jun-29 02:27N 45°07' W 000°40'0 0.0
2015-Jun-29 01:33N 45°07' W 000°40'0 0.0
2015-Jun-29 00:33N 45°07' W 000°40'0 0.0
2015-Jun-28 23:33N 45°07' W 000°40'0 0.0
2015-Jun-28 22:30N 45°07' W 000°40'0 0.0
2015-Jun-28 21:30N 45°07' W 000°40'0 0.0
2015-Jun-28 20:30N 45°07' W 000°40'0 0.0
2015-Jun-28 19:33N 45°07' W 000°40'0 0.0
2015-Jun-28 18:33N 45°07' W 000°40'0 0.0
2015-Jun-28 17:33N 45°07' W 000°40'0 0.0
2015-Jun-28 16:31N 45°07' W 000°40'15 0.9
2015-Jun-28 00:33N 44°53' W 000°32'0 0.0
2015-Jun-27 23:03N 44°53' W 000°32'0 0.0
2015-Jun-27 22:33N 44°53' W 000°32'7 0.3
2015-Jun-27 01:21N 44°60' W 000°33'2 2.0
2015-Jun-27 00:30N 44°58' W 000°32'5 1.2
2015-Jun-26 20:22N 44°53' W 000°32'0 0.0
2015-Jun-26 19:33N 44°53' W 000°32'0 0.0
2015-Jun-26 18:16N 44°53' W 000°32'0 0.0
2015-Jun-26 03:32N 44°53' W 000°32'0 0.0
2015-Jun-26 02:04N 44°53' W 000°32'0 0.0
2015-Jun-26 01:33N 44°53' W 000°32'1 1.0
2015-Jun-26 00:29N 44°54' W 000°32'1 0.8
2015-Jun-25 23:33N 44°55' W 000°33'  

Dump ship's entire track history